createdAt,value
2018-03-27T00:02:19.837Z,100476.41
2018-03-27T00:04:47.302Z,100467.66
2018-03-27T00:07:14.747Z,100467.21
2018-03-27T00:09:42.251Z,100467.23
2018-03-27T00:12:09.710Z,100477.73
2018-03-27T00:14:37.149Z,100468.08
2018-03-27T00:17:04.589Z,100454.92
2018-03-27T00:19:32.081Z,100452.77
2018-03-27T00:21:59.544Z,100453.18
2018-03-27T00:24:26.987Z,100464.16
2018-03-27T00:27:01.049Z,100458.89
2018-03-27T00:29:40.390Z,100461.54
2018-03-27T00:32:19.793Z,100471.61
2018-03-27T00:34:58.990Z,100463.72
2018-03-27T00:37:38.524Z,100464.61
2018-03-27T00:40:17.622Z,100472.95
2018-03-27T00:42:54.012Z,100475.53
2018-03-27T00:45:21.453Z,100469.44
2018-03-27T00:47:48.893Z,100469.86
2018-03-27T00:50:16.348Z,100467.66
2018-03-27T00:52:43.789Z,100471.61
2018-03-27T00:55:11.239Z,100462.84
2018-03-27T00:57:38.725Z,100468.55
2018-03-27T01:00:06.168Z,100463.29
2018-03-27T01:02:33.605Z,100461.96
2018-03-27T01:05:06.665Z,100466.36
2018-03-27T01:07:34.109Z,100472.48
2018-03-27T01:10:01.551Z,100465.47
2018-03-27T01:12:29.013Z,100458.03
2018-03-27T01:14:56.461Z,100460.22
2018-03-27T01:17:23.922Z,100457.56
2018-03-27T01:19:51.531Z,100454.52
2018-03-27T01:22:19.016Z,100453.64
2018-03-27T01:24:46.461Z,100449.25
2018-03-27T01:27:14.132Z,100451.00
2018-03-27T01:29:41.570Z,100452.75
2018-03-27T01:32:09.046Z,100446.59
2018-03-27T01:34:36.721Z,100447.93
2018-03-27T01:37:04.160Z,100438.73
2018-03-27T01:39:31.596Z,100444.39
2018-03-27T01:41:59.265Z,100444.42
2018-03-27T01:44:26.718Z,100445.25
2018-03-27T01:46:54.164Z,100443.03
2018-03-27T01:49:21.645Z,100442.62
2018-03-27T01:51:49.089Z,100447.85
2018-03-27T01:54:16.530Z,100441.72
2018-03-27T01:56:44.190Z,100438.61
2018-03-27T01:59:11.625Z,100435.55
2018-03-27T02:01:39.066Z,100437.31
2018-03-27T02:04:06.537Z,100439.94
2018-03-27T02:06:33.981Z,100435.55
2018-03-27T02:09:01.449Z,100431.17
2018-03-27T02:11:34.958Z,100433.36
2018-03-27T02:14:08.011Z,100428.51
2018-03-27T02:16:41.453Z,100425.48
2018-03-27T02:19:14.608Z,100423.73
2018-03-27T02:21:41.519Z,100429.86
2018-03-27T02:24:08.977Z,100426.39
2018-03-27T02:26:36.453Z,100423.30
2018-03-27T02:29:04.142Z,100426.75
2018-03-27T02:31:31.582Z,100420.97
2018-03-27T02:33:59.025Z,100424.39
2018-03-27T02:36:26.502Z,100420.45
2018-03-27T02:38:53.942Z,100418.77
2018-03-27T02:41:21.390Z,100429.66
2018-03-27T02:43:48.934Z,100430.29
2018-03-27T02:46:16.378Z,100427.28
2018-03-27T02:48:43.826Z,100427.73
2018-03-27T02:51:11.285Z,100427.58
2018-03-27T02:53:38.769Z,100427.89
2018-03-27T02:56:06.216Z,100420.01
2018-03-27T02:58:33.978Z,100421.69
2018-03-27T03:01:01.439Z,100426.58
2018-03-27T03:03:28.889Z,100429.12
2018-03-27T03:05:56.550Z,100431.81
2018-03-27T03:08:24.015Z,100425.14
2018-03-27T03:10:51.457Z,100428.58
2018-03-27T03:13:19.101Z,100430.00
2018-03-27T03:15:46.536Z,100426.16
2018-03-27T03:18:13.987Z,100429.98
2018-03-27T03:20:41.625Z,100428.52
2018-03-27T03:23:09.067Z,100434.67
2018-03-27T03:25:36.517Z,100431.62
2018-03-27T03:28:04.085Z,100422.98
2018-03-27T03:30:31.527Z,100425.19
2018-03-27T03:32:58.974Z,100424.81
2018-03-27T03:35:26.450Z,100426.95
2018-03-27T03:37:53.914Z,100424.91
2018-03-27T03:40:21.378Z,100421.02
2018-03-27T03:42:48.977Z,100421.08
2018-03-27T03:45:16.420Z,100421.09
2018-03-27T03:47:43.877Z,100416.30
2018-03-27T03:50:11.478Z,100412.95
2018-03-27T03:52:38.929Z,100408.58
2018-03-27T03:55:06.382Z,100410.33
2018-03-27T03:57:34.077Z,100404.22
2018-03-27T04:00:01.514Z,100406.51
2018-03-27T04:02:28.954Z,100403.47
2018-03-27T04:04:56.455Z,100394.22
2018-03-27T04:07:23.930Z,100399.03
2018-03-27T04:09:51.397Z,100393.44
2018-03-27T04:12:19.001Z,100397.38
2018-03-27T04:14:46.469Z,100392.09
2018-03-27T04:17:13.931Z,100394.71
2018-03-27T04:19:41.397Z,100394.75
2018-03-27T04:22:08.849Z,100396.95
2018-03-27T04:24:36.289Z,100397.78
2018-03-27T04:27:03.757Z,100403.99
2018-03-27T04:29:31.197Z,100396.11
2018-03-27T04:31:58.862Z,100394.77
2018-03-27T04:34:26.316Z,100377.21
2018-03-27T04:36:53.787Z,100371.42
2018-03-27T04:39:21.257Z,100389.95
2018-03-27T04:41:48.742Z,100395.23
2018-03-27T04:44:16.393Z,100396.52
2018-03-27T04:46:43.837Z,100403.12
2018-03-27T04:49:11.294Z,100400.05
2018-03-27T04:51:38.761Z,100393.48
2018-03-27T04:54:06.214Z,100397.86
2018-03-27T04:56:33.829Z,100402.24
2018-03-27T04:59:01.274Z,100394.20
2018-03-27T05:01:28.733Z,100396.06
2018-03-27T05:03:56.205Z,100389.02
2018-03-27T05:06:23.655Z,100394.32
2018-03-27T05:08:51.293Z,100386.84
2018-03-27T05:11:18.828Z,100391.20
2018-03-27T05:13:46.273Z,100394.76
2018-03-27T05:16:13.738Z,100387.39
2018-03-27T05:18:41.191Z,100387.36
2018-03-27T05:21:08.994Z,100388.67
2018-03-27T05:23:36.443Z,100392.64
2018-03-27T05:26:03.885Z,100392.20
2018-03-27T05:28:31.354Z,100394.84
2018-03-27T05:30:58.798Z,100397.46
2018-03-27T05:33:26.396Z,100394.80
2018-03-27T05:35:53.837Z,100395.71
2018-03-27T05:38:21.277Z,100391.77
2018-03-27T05:40:48.746Z,100394.86
2018-03-27T05:43:16.201Z,100393.98
2018-03-27T05:45:43.845Z,100393.98
2018-03-27T05:48:11.289Z,100390.02
2018-03-27T05:50:38.745Z,100385.23
2018-03-27T05:53:06.222Z,100382.60
2018-03-27T05:55:33.669Z,100381.28
2018-03-27T05:58:01.302Z,100384.80
2018-03-27T06:00:28.751Z,100391.41
2018-03-27T06:02:56.198Z,100397.95
2018-03-27T06:05:23.666Z,100406.30
2018-03-27T06:07:51.118Z,100407.16
2018-03-27T06:10:18.759Z,100411.13
2018-03-27T06:12:46.197Z,100399.28
2018-03-27T06:15:13.642Z,100393.58
2018-03-27T06:17:41.113Z,100383.03
2018-03-27T06:20:08.565Z,100378.23
2018-03-27T06:22:36.516Z,100375.61
2018-03-27T06:25:03.965Z,100376.45
2018-03-27T06:27:31.431Z,100376.90
2018-03-27T06:29:58.913Z,100372.09
2018-03-27T06:32:26.354Z,100375.53
2018-03-27T06:34:53.929Z,100374.23
2018-03-27T06:37:21.364Z,100372.89
2018-03-27T06:39:48.806Z,100371.58
2018-03-27T06:42:16.310Z,100371.97
2018-03-27T06:44:43.757Z,100370.17
2018-03-27T06:47:11.562Z,100368.41
2018-03-27T06:49:39.025Z,100365.28
2018-03-27T06:52:06.481Z,100377.80
2018-03-27T06:54:33.965Z,100375.97
2018-03-27T06:57:01.434Z,100376.12
2018-03-27T06:59:28.908Z,100379.59
2018-03-27T07:01:56.391Z,100375.38
2018-03-27T07:04:23.832Z,100369.97
2018-03-27T07:06:51.349Z,100377.78
2018-03-27T07:09:18.764Z,100370.17
2018-03-27T07:11:46.448Z,100373.09
2018-03-27T07:14:13.881Z,100364.38
2018-03-27T07:16:41.330Z,100361.78
2018-03-27T07:19:08.840Z,100354.47
2018-03-27T07:21:36.283Z,100358.23
2018-03-27T07:24:04.077Z,100356.36
2018-03-27T07:26:31.517Z,100351.47
2018-03-27T07:28:58.965Z,100350.89
2018-03-27T07:31:26.425Z,100347.86
2018-03-27T07:33:53.869Z,100346.09
2018-03-27T07:36:21.349Z,100336.27
2018-03-27T07:38:48.797Z,100340.09
2018-03-27T07:41:16.237Z,100345.69
2018-03-27T07:43:43.697Z,100342.52
2018-03-27T07:46:11.154Z,100341.02
2018-03-27T07:48:38.634Z,100333.64
2018-03-27T07:51:06.074Z,100332.77
2018-03-27T07:53:33.514Z,100334.99
2018-03-27T07:56:01.057Z,100340.50
2018-03-27T07:58:28.505Z,100330.50
2018-03-27T08:00:56.154Z,100335.40
2018-03-27T08:03:23.587Z,100331.97
2018-03-27T08:05:51.562Z,100333.27
2018-03-27T08:08:19.053Z,100330.91
2018-03-27T08:10:46.496Z,100328.02
2018-03-27T08:13:14.364Z,100331.53
2018-03-27T08:15:41.834Z,100330.33
2018-03-27T08:18:09.278Z,100322.36
2018-03-27T08:20:36.745Z,100318.37
2018-03-27T08:23:04.196Z,100319.23
2018-03-27T08:25:31.825Z,100314.67
2018-03-27T08:27:59.290Z,100317.25
2018-03-27T08:30:26.734Z,100307.77
2018-03-27T08:32:54.203Z,100310.78
2018-03-27T08:35:21.669Z,100306.39
2018-03-27T08:37:49.391Z,100311.45
2018-03-27T08:40:16.833Z,100308.28
2018-03-27T08:42:44.286Z,100311.52
2018-03-27T08:45:11.773Z,100310.46
2018-03-27T08:47:39.236Z,100312.07
2018-03-27T08:50:06.851Z,100304.47
2018-03-27T08:52:34.306Z,100300.49
2018-03-27T08:55:01.785Z,100296.41
2018-03-27T08:57:29.257Z,100291.31
2018-03-27T08:59:56.709Z,100290.74
2018-03-27T09:02:24.225Z,100287.88
2018-03-27T09:04:51.671Z,100287.27
2018-03-27T09:07:19.119Z,100285.38
2018-03-27T09:09:46.604Z,100282.25
2018-03-27T09:12:14.053Z,100279.34
2018-03-27T09:14:41.561Z,100271.22
2018-03-27T09:17:09.071Z,100275.51
2018-03-27T09:19:36.521Z,100272.08
2018-03-27T09:22:04.012Z,100269.59
2018-03-27T09:24:31.465Z,100260.19
2018-03-27T09:26:59.181Z,100265.06
2018-03-27T09:29:26.635Z,100259.50
2018-03-27T09:31:54.082Z,100257.67
2018-03-27T09:34:21.557Z,100251.47
2018-03-27T09:36:49.018Z,100249.79
2018-03-27T09:39:16.637Z,100248.70
2018-03-27T09:41:44.086Z,100246.12
2018-03-27T09:44:11.577Z,100248.23
2018-03-27T09:46:39.055Z,100242.04
2018-03-27T09:49:06.592Z,100241.77
2018-03-27T09:51:34.189Z,100241.33
2018-03-27T09:54:01.677Z,100235.93
2018-03-27T09:56:29.129Z,100238.06
2018-03-27T09:58:56.622Z,100232.64
2018-03-27T10:01:33.997Z,100236.77
2018-03-27T10:04:01.652Z,100232.77
2018-03-27T10:06:29.143Z,100226.73
2018-03-27T10:08:56.692Z,100221.38
2018-03-27T10:11:24.125Z,100223.44
2018-03-27T10:13:51.577Z,100219.89
2018-03-27T10:16:19.060Z,100215.25
2018-03-27T10:18:46.508Z,100211.04
2018-03-27T10:21:14.005Z,100210.91
2018-03-27T10:23:41.493Z,100212.05
2018-03-27T10:26:08.944Z,100201.83
2018-03-27T10:28:36.484Z,100205.29
2018-03-27T10:31:03.971Z,100201.83
2018-03-27T10:33:31.462Z,100205.23
2018-03-27T10:35:58.950Z,100197.65
2018-03-27T10:38:26.405Z,100195.27
2018-03-27T10:40:53.878Z,100194.08
2018-03-27T10:43:21.357Z,100189.42
2018-03-27T10:45:48.849Z,100191.20
2018-03-27T10:48:16.317Z,100183.42
2018-03-27T10:50:43.806Z,100180.64
2018-03-27T10:53:11.294Z,100169.48
2018-03-27T10:55:38.775Z,100173.56
2018-03-27T10:58:06.414Z,100167.26
2018-03-27T11:00:33.871Z,100165.02
2018-03-27T11:03:01.341Z,100160.35
2018-03-27T11:05:28.841Z,100155.91
2018-03-27T11:07:56.310Z,100156.52
2018-03-27T11:10:24.193Z,100151.24
2018-03-27T11:12:51.661Z,100144.17
2018-03-27T11:15:19.139Z,100133.81
2018-03-27T11:17:46.630Z,100132.11
2018-03-27T11:20:14.084Z,100126.29
2018-03-27T11:22:41.725Z,100120.72
2018-03-27T11:25:09.177Z,100116.83
2018-03-27T11:27:36.653Z,100117.98
2018-03-27T11:30:04.137Z,100111.31
2018-03-27T11:32:31.595Z,100098.06
2018-03-27T11:34:59.185Z,100097.89
2018-03-27T11:37:26.637Z,100089.84
2018-03-27T11:39:54.093Z,100080.33
2018-03-27T11:42:21.572Z,100073.72
2018-03-27T11:44:49.021Z,100077.70
2018-03-27T11:47:16.510Z,100066.73
2018-03-27T11:49:43.964Z,100057.13
2018-03-27T11:52:11.425Z,100052.38
2018-03-27T11:54:38.915Z,100042.37
2018-03-27T11:57:06.369Z,100042.33
2018-03-27T11:59:34.161Z,100032.11
2018-03-27T12:02:01.640Z,100028.97
2018-03-27T12:04:29.121Z,100022.38
2018-03-27T12:06:56.610Z,100019.17
2018-03-27T12:09:24.067Z,100006.23
2018-03-27T12:11:51.733Z,100003.16
2018-03-27T12:14:19.209Z,100009.47
2018-03-27T12:16:46.657Z,99998.09
2018-03-27T12:19:14.140Z,99995.09
2018-03-27T12:21:41.598Z,99977.34
2018-03-27T12:24:09.183Z,99972.55
2018-03-27T12:26:36.685Z,99966.50
2018-03-27T12:29:04.138Z,99959.50
2018-03-27T12:31:31.609Z,99963.73
2018-03-27T12:33:59.069Z,99949.81
2018-03-27T12:36:26.737Z,99948.93
2018-03-27T12:38:54.194Z,99950.35
2018-03-27T12:41:21.645Z,99948.72
2018-03-27T12:43:49.198Z,99944.62
2018-03-27T12:46:20.950Z,99945.43
2018-03-27T12:48:49.101Z,99950.25
2018-03-27T12:51:16.590Z,99940.47
2018-03-27T12:53:44.040Z,99935.03
2018-03-27T12:56:11.517Z,99932.63
2018-03-27T12:58:38.972Z,99928.06
2018-03-27T13:01:06.553Z,99930.06
2018-03-27T13:03:34.001Z,99919.20
2018-03-27T13:06:01.450Z,99916.33
2018-03-27T13:08:28.945Z,99909.39
2018-03-27T13:10:56.397Z,99912.83
2018-03-27T13:13:24.001Z,99910.23
2018-03-27T13:15:51.453Z,99907.70
2018-03-27T13:18:18.905Z,99912.30
2018-03-27T13:20:46.377Z,99908.86
2018-03-27T13:23:13.826Z,99919.47
2018-03-27T13:25:41.466Z,99915.45
2018-03-27T13:28:08.941Z,99916.45
2018-03-27T13:30:36.391Z,99917.42
2018-03-27T13:33:03.861Z,99918.30
2018-03-27T13:35:31.309Z,99911.42
2018-03-27T13:37:58.811Z,99909.45
2018-03-27T13:40:26.261Z,99907.00
2018-03-27T13:42:53.729Z,99895.30
2018-03-27T13:45:21.206Z,99891.05
2018-03-27T13:47:48.653Z,99890.28
2018-03-27T13:50:16.149Z,99883.11
2018-03-27T13:52:43.622Z,99881.54
2018-03-27T13:55:11.078Z,99883.66
2018-03-27T13:57:38.560Z,99887.31
2018-03-27T14:00:08.682Z,99878.52
2018-03-27T14:02:36.162Z,99876.89
2018-03-27T14:05:03.629Z,99868.97
2018-03-27T14:07:31.081Z,99867.58
2018-03-27T14:09:58.554Z,99859.08
2018-03-27T14:12:26.008Z,99854.36
2018-03-27T14:14:53.738Z,99852.24
2018-03-27T14:17:22.102Z,99846.92
2018-03-27T14:19:49.566Z,99842.95
2018-03-27T14:22:17.057Z,99840.03
2018-03-27T14:24:44.536Z,99837.36
2018-03-27T14:27:12.206Z,99840.23
2018-03-27T14:29:39.657Z,99838.42
2018-03-27T14:32:07.133Z,99834.75
2018-03-27T14:34:34.679Z,99829.98
2018-03-27T14:37:02.164Z,99824.83
2018-03-27T14:39:30.078Z,99826.03
2018-03-27T14:41:57.538Z,99822.00
2018-03-27T14:44:24.981Z,99819.61
2018-03-27T14:46:52.523Z,99819.95
2018-03-27T14:49:20.014Z,99806.53
2018-03-27T14:51:47.819Z,99811.23
2018-03-27T14:54:15.273Z,99814.24
2018-03-27T14:56:42.726Z,99804.68
2018-03-27T14:59:10.202Z,99818.07
2018-03-27T15:01:37.664Z,99826.09
2018-03-27T15:04:05.271Z,99829.09
2018-03-27T15:06:32.726Z,99824.72
2018-03-27T15:09:00.180Z,99829.20
2018-03-27T15:11:27.661Z,99824.04
2018-03-27T15:13:55.121Z,99822.31
2018-03-27T15:16:22.913Z,99821.00
2018-03-27T15:18:50.373Z,99824.46
2018-03-27T15:21:17.836Z,99819.56
2018-03-27T15:23:45.305Z,99814.33
2018-03-27T15:26:12.756Z,99809.94
2018-03-27T15:28:40.335Z,99808.18
2018-03-27T15:31:08.007Z,99810.89
2018-03-27T15:33:35.497Z,99806.20
2018-03-27T15:36:02.950Z,99799.66
2018-03-27T15:38:30.400Z,99803.00
2018-03-27T15:40:57.880Z,99797.19
2018-03-27T15:43:25.333Z,99792.39
2018-03-27T15:45:52.787Z,99788.37
2018-03-27T15:48:20.270Z,99789.59
2018-03-27T15:50:47.736Z,99790.43
2018-03-27T15:53:15.225Z,99795.06
2018-03-27T15:55:42.753Z,99789.06
2018-03-27T15:58:10.181Z,99792.65
2018-03-27T16:00:37.655Z,99786.78
2018-03-27T16:03:05.193Z,99787.66
2018-03-27T16:05:32.678Z,99776.96
2018-03-27T16:08:00.137Z,99765.66
2018-03-27T16:10:27.637Z,99760.55
2018-03-27T16:12:55.107Z,99761.08
2018-03-27T16:15:22.581Z,99758.10
2018-03-27T16:17:50.285Z,99745.53
2018-03-27T16:20:17.733Z,99745.07
2018-03-27T16:22:45.190Z,99750.31
2018-03-27T16:25:12.670Z,99745.44
2018-03-27T16:27:40.134Z,99737.41
2018-03-27T16:30:07.666Z,99733.58
2018-03-27T16:32:35.130Z,99733.34
2018-03-27T16:35:02.582Z,99729.23
2018-03-27T16:37:30.063Z,99723.06
2018-03-27T16:39:57.553Z,99729.77
2018-03-27T16:42:25.170Z,99732.41
2018-03-27T16:44:52.638Z,99728.77
2018-03-27T16:47:20.114Z,99727.48
2018-03-27T16:49:47.602Z,99721.13
2018-03-27T16:52:15.188Z,99731.59
2018-03-27T16:54:42.721Z,99731.33
2018-03-27T16:57:10.169Z,99726.69
2018-03-27T16:59:37.629Z,99724.52
2018-03-27T17:02:05.117Z,99728.33
2018-03-27T17:04:32.573Z,99722.84
2018-03-27T17:07:00.137Z,99724.44
2018-03-27T17:09:27.594Z,99721.81
2018-03-27T17:11:55.044Z,99715.69
2018-03-27T17:14:22.553Z,99711.08
2018-03-27T17:16:49.998Z,99712.37
2018-03-27T17:19:17.933Z,99702.16
2018-03-27T17:21:45.374Z,99706.09
2018-03-27T17:24:12.823Z,99708.03
2018-03-27T17:26:40.297Z,99710.78
2018-03-27T17:29:07.745Z,99713.34
2018-03-27T17:31:35.381Z,99710.48
2018-03-27T17:34:02.830Z,99721.56
2018-03-27T17:36:30.295Z,99719.21
2018-03-27T17:38:57.765Z,99710.39
2018-03-27T17:41:25.213Z,99701.16
2018-03-27T17:43:53.382Z,99697.94
2018-03-27T17:46:21.189Z,99702.23
2018-03-27T17:48:48.637Z,99706.44
2018-03-27T17:51:16.104Z,99711.14
2018-03-27T17:53:43.561Z,99715.23
2018-03-27T17:56:11.142Z,99711.71
2018-03-27T17:58:38.589Z,99710.63
2018-03-27T18:01:06.054Z,99705.45
2018-03-27T18:03:33.538Z,99708.92
2018-03-27T18:06:01.006Z,99705.09
2018-03-27T18:08:28.507Z,99709.72
2018-03-27T18:10:55.966Z,99706.20
2018-03-27T18:13:23.437Z,99710.41
2018-03-27T18:15:50.916Z,99709.95
2018-03-27T18:18:18.362Z,99704.33
2018-03-27T18:20:46.098Z,99703.58
2018-03-27T18:23:13.546Z,99703.03
2018-03-27T18:25:40.996Z,99701.49
2018-03-27T18:28:08.469Z,99707.75
2018-03-27T18:30:36.476Z,99700.76
2018-03-27T18:33:04.072Z,99695.39
2018-03-27T18:35:33.374Z,99698.62
2018-03-27T18:38:00.848Z,99690.64
2018-03-27T18:40:28.358Z,99691.53
2018-03-27T18:42:55.820Z,99692.02
2018-03-27T18:45:23.660Z,99692.07
2018-03-27T18:47:51.118Z,99685.38
2018-03-27T18:50:18.861Z,99671.34
2018-03-27T18:52:46.338Z,99678.03
2018-03-27T18:55:13.785Z,99678.54
2018-03-27T18:57:41.278Z,99687.20
2018-03-27T19:00:08.736Z,99684.16
2018-03-27T19:02:36.198Z,99680.78
2018-03-27T19:05:03.683Z,99678.75
2018-03-27T19:07:31.134Z,99686.88
2018-03-27T19:09:58.624Z,99683.38
2018-03-27T19:12:26.079Z,99692.07
2018-03-27T19:14:54.575Z,99687.88
2018-03-27T19:17:22.056Z,99685.09
2018-03-27T19:19:49.518Z,99680.87
2018-03-27T19:22:17.006Z,99683.24
2018-03-27T19:24:44.454Z,99682.81
2018-03-27T19:27:11.898Z,99672.55
2018-03-27T19:29:39.387Z,99663.19
2018-03-27T19:32:06.862Z,99666.73
2018-03-27T19:34:34.489Z,99655.85
2018-03-27T19:37:01.950Z,99659.22
2018-03-27T19:39:29.407Z,99659.75
2018-03-27T19:41:57.691Z,99650.58
2018-03-27T19:44:25.995Z,99645.72
2018-03-27T19:46:53.487Z,99648.88
2018-03-27T19:49:25.094Z,99647.09
2018-03-27T19:51:53.535Z,99640.88
2018-03-27T19:54:21.004Z,99635.72
2018-03-27T19:56:48.523Z,99636.41
2018-03-27T19:59:15.991Z,99635.47
2018-03-27T20:01:43.433Z,99636.50
2018-03-27T20:04:11.023Z,99628.61
2018-03-27T20:06:39.683Z,99627.12
2018-03-27T20:09:07.733Z,99619.39
2018-03-27T20:11:35.205Z,99614.29
2018-03-27T20:14:02.826Z,99611.52
2018-03-27T20:16:31.071Z,99611.66
2018-03-27T20:18:58.546Z,99609.12
2018-03-27T20:21:26.001Z,99597.95
2018-03-27T20:23:53.486Z,99589.02
2018-03-27T20:26:20.934Z,99584.81
2018-03-27T20:28:48.665Z,99581.86
2018-03-27T20:31:16.137Z,99579.19
2018-03-27T20:33:43.610Z,99579.55
2018-03-27T20:36:11.078Z,99570.08
2018-03-27T20:38:38.537Z,99567.47
2018-03-27T20:41:06.138Z,99566.52
2018-03-27T20:43:33.586Z,99570.99
2018-03-27T20:46:01.046Z,99573.47
2018-03-27T20:48:28.526Z,99561.78
2018-03-27T20:50:55.982Z,99561.83
2018-03-27T20:53:23.486Z,99560.31
2018-03-27T20:55:50.930Z,99552.52
2018-03-27T20:58:18.390Z,99547.75
2018-03-27T21:00:47.134Z,99544.80
2018-03-27T21:03:16.021Z,99544.37
2018-03-27T21:05:43.574Z,99541.84
2018-03-27T21:08:11.030Z,99535.78
2018-03-27T21:10:38.493Z,99528.05
2018-03-27T21:13:05.961Z,99528.41
2018-03-27T21:15:33.418Z,99538.70
2018-03-27T21:18:01.021Z,99537.34
2018-03-27T21:20:28.474Z,99543.37
2018-03-27T21:22:59.211Z,99545.23
2018-03-27T21:25:26.706Z,99541.36
2018-03-27T21:27:54.161Z,99536.86
2018-03-27T21:30:21.645Z,99539.56
2018-03-27T21:32:49.130Z,99532.36
2018-03-27T21:35:16.609Z,99532.48
2018-03-27T21:37:48.124Z,99528.87
2018-03-27T21:40:16.059Z,99523.39
2018-03-27T21:42:43.822Z,99526.25
2018-03-27T21:45:11.273Z,99528.74
2018-03-27T21:47:38.724Z,99530.60
2018-03-27T21:50:06.210Z,99525.41
2018-03-27T21:52:33.658Z,99522.25
2018-03-27T21:55:03.858Z,99521.36
2018-03-27T21:57:31.314Z,99521.66
2018-03-27T21:59:58.753Z,99517.28
2018-03-27T22:02:26.221Z,99511.66
2018-03-27T22:04:53.689Z,99511.45
2018-03-27T22:07:21.378Z,99501.94
2018-03-27T22:09:48.832Z,99498.09
2018-03-27T22:12:16.291Z,99501.45
2018-03-27T22:14:43.753Z,99491.86
2018-03-27T22:17:11.204Z,99488.17
2018-03-27T22:19:38.668Z,99488.38
2018-03-27T22:22:06.137Z,99486.47
2018-03-27T22:24:33.627Z,99485.55
2018-03-27T22:27:01.066Z,99485.98
2018-03-27T22:29:28.713Z,99485.04
2018-03-27T22:31:56.145Z,99480.97
2018-03-27T22:34:23.586Z,99479.06
2018-03-27T22:36:51.073Z,99483.59
2018-03-27T22:39:18.565Z,99472.34
2018-03-27T22:41:46.002Z,99473.20
2018-03-27T22:44:13.770Z,99470.42
2018-03-27T22:46:41.183Z,99477.34
2018-03-27T22:49:08.617Z,99470.70
2018-03-27T22:51:36.086Z,99470.69
2018-03-27T22:54:03.581Z,99469.84
2018-03-27T22:56:31.034Z,99469.36
2018-03-27T22:58:58.802Z,99465.59
2018-03-27T23:01:26.334Z,99463.77
2018-03-27T23:03:53.809Z,99459.84
2018-03-27T23:06:21.323Z,99465.47
2018-03-27T23:08:48.757Z,99460.63
2018-03-27T23:11:16.257Z,99462.59
2018-03-27T23:13:43.874Z,99459.00
2018-03-27T23:16:11.313Z,99451.52
2018-03-27T23:18:38.761Z,99446.77
2018-03-27T23:21:06.221Z,99453.70
2018-03-27T23:23:33.654Z,99456.66
2018-03-27T23:26:01.089Z,99451.66
2018-03-27T23:28:28.707Z,99457.05
2018-03-27T23:30:56.153Z,99456.13
2018-03-27T23:33:23.609Z,99453.59
2018-03-27T23:35:51.085Z,99454.33
2018-03-27T23:38:18.539Z,99453.92
2018-03-27T23:40:46.265Z,99452.55
2018-03-27T23:43:13.778Z,99451.45
2018-03-27T23:45:41.326Z,99450.64
2018-03-27T23:48:08.795Z,99453.39
2018-03-27T23:50:36.238Z,99446.39
2018-03-27T23:53:03.901Z,99447.61
2018-03-27T23:55:31.337Z,99447.64
2018-03-27T23:57:58.781Z,99449.34
